createdAt,value
2019-05-11T00:01:31.864Z,10.40
2019-05-11T00:06:56.567Z,9.40
2019-05-11T00:12:21.224Z,10.20
2019-05-11T00:17:45.177Z,9.57
2019-05-11T00:23:09.360Z,10.77
2019-05-11T00:28:33.179Z,9.90
2019-05-11T00:33:58.098Z,9.93
2019-05-11T00:39:22.286Z,10.40
2019-05-11T00:44:47.340Z,10.63
2019-05-11T00:50:12.486Z,9.60
2019-05-11T00:55:36.597Z,10.07
2019-05-11T01:01:02.499Z,10.43
2019-05-11T01:06:27.052Z,11.23
2019-05-11T01:11:51.537Z,10.30
2019-05-11T01:17:15.683Z,10.40
2019-05-11T01:22:40.525Z,11.03
2019-05-11T01:28:04.002Z,11.30
2019-05-11T01:33:27.826Z,10.83
2019-05-11T01:38:52.428Z,12.33
2019-05-11T01:44:17.531Z,12.33
2019-05-11T01:49:42.282Z,16.53
2019-05-11T01:55:07.561Z,13.43
2019-05-11T02:00:31.501Z,16.17
2019-05-11T02:05:55.466Z,14.87
2019-05-11T02:11:20.053Z,17.80
2019-05-11T02:16:44.344Z,15.03
2019-05-11T02:22:09.017Z,16.50
2019-05-11T02:27:33.531Z,17.00
2019-05-11T02:32:58.562Z,18.53
2019-05-11T02:38:22.459Z,16.00
2019-05-11T02:43:46.130Z,16.70
2019-05-11T02:49:09.691Z,17.43
2019-05-11T02:54:33.981Z,18.77
2019-05-11T02:59:58.615Z,15.13
2019-05-11T03:05:23.270Z,20.13
2019-05-11T03:10:47.731Z,17.87
2019-05-11T03:16:12.582Z,20.97
2019-05-11T03:21:37.161Z,19.33
2019-05-11T03:27:02.200Z,19.30
2019-05-11T03:32:26.075Z,17.30
2019-05-11T03:37:49.867Z,18.70
2019-05-11T03:43:13.814Z,18.17
2019-05-11T03:48:38.262Z,17.53
2019-05-11T03:54:02.369Z,15.23
2019-05-11T03:59:27.023Z,15.90
2019-05-11T04:04:51.328Z,16.13
2019-05-11T04:10:16.922Z,16.07
2019-05-11T04:15:40.981Z,16.10
2019-05-11T04:21:05.605Z,15.33
2019-05-11T04:26:30.269Z,14.47
2019-05-11T04:31:54.635Z,13.63
2019-05-11T04:37:18.947Z,13.30
2019-05-11T04:42:54.824Z,10.17
2019-05-11T04:48:09.622Z,9.07
2019-05-11T04:53:33.625Z,9.03
2019-05-11T04:58:57.987Z,8.90
2019-05-11T05:04:22.412Z,7.60
2019-05-11T05:09:46.728Z,7.07
2019-05-11T05:15:11.740Z,6.40
2019-05-11T05:20:36.343Z,5.93
2019-05-11T05:26:01.479Z,6.00
2019-05-11T05:31:26.447Z,6.83
2019-05-11T05:36:50.391Z,6.37
2019-05-11T05:42:14.544Z,5.07
2019-05-11T05:47:39.286Z,5.30
2019-05-11T05:53:03.781Z,4.33
2019-05-11T05:58:28.275Z,4.57
2019-05-11T06:03:52.584Z,4.77
2019-05-11T06:09:17.260Z,4.67
2019-05-11T06:14:41.096Z,4.20
2019-05-11T06:20:05.831Z,4.50
2019-05-11T06:25:30.842Z,4.13
2019-05-11T06:30:55.614Z,3.80
2019-05-11T06:36:19.458Z,3.85
2019-05-11T06:41:43.596Z,3.62
2019-05-11T06:47:08.409Z,3.50
2019-05-11T06:52:33.118Z,2.77
2019-05-11T06:57:57.616Z,3.52
2019-05-11T07:03:22.159Z,2.55
2019-05-11T07:08:47.068Z,2.75
2019-05-11T07:14:20.620Z,2.77
2019-05-11T07:19:38.022Z,2.05
2019-05-11T07:25:01.769Z,2.40
2019-05-11T07:30:26.557Z,3.42
2019-05-11T07:35:51.423Z,2.95
2019-05-11T07:41:17.656Z,3.02
2019-05-11T07:46:41.449Z,3.52
2019-05-11T07:52:07.633Z,2.92
2019-05-11T07:57:32.068Z,3.00
2019-05-11T08:02:58.469Z,2.62
2019-05-11T08:08:25.192Z,2.40
2019-05-11T08:13:49.169Z,2.35
2019-05-11T08:19:13.489Z,2.62
2019-05-11T08:24:37.948Z,2.50
2019-05-11T08:30:01.734Z,2.47
2019-05-11T08:35:30.932Z,2.45
2019-05-11T08:40:52.330Z,3.12
2019-05-11T08:46:18.558Z,2.67
2019-05-11T08:51:42.386Z,2.52
2019-05-11T08:57:08.141Z,2.87
2019-05-11T09:02:32.221Z,2.30
2019-05-11T09:07:57.763Z,1.80
2019-05-11T09:13:21.822Z,2.17
2019-05-11T09:18:47.951Z,2.40
2019-05-11T09:24:11.426Z,2.42
2019-05-11T09:29:36.079Z,2.25
2019-05-11T09:35:00.714Z,2.20
2019-05-11T09:40:25.254Z,2.58
2019-05-11T09:45:51.959Z,2.05
2019-05-11T09:51:14.848Z,2.60
2019-05-11T09:56:39.934Z,2.42
2019-05-11T10:02:04.567Z,2.20
2019-05-11T10:07:29.021Z,2.55
2019-05-11T10:12:54.275Z,2.30
2019-05-11T10:18:18.935Z,3.12
2019-05-11T10:23:43.482Z,3.02
2019-05-11T10:29:08.317Z,2.83
2019-05-11T10:34:32.201Z,2.95
2019-05-11T10:39:57.804Z,2.90
2019-05-11T10:45:22.965Z,2.42
2019-05-11T10:50:48.398Z,2.47
2019-05-11T10:56:12.158Z,3.37
2019-05-11T11:01:38.092Z,2.27
2019-05-11T11:07:03.467Z,3.72
2019-05-11T11:12:27.995Z,3.12
2019-05-11T11:17:52.242Z,2.77
2019-05-11T11:23:17.754Z,2.72
2019-05-11T11:28:41.991Z,3.20
2019-05-11T11:34:08.190Z,3.12
2019-05-11T11:39:32.911Z,3.50
2019-05-11T11:44:58.760Z,3.17
2019-05-11T11:50:22.794Z,3.83
2019-05-11T11:55:48.181Z,3.77
2019-05-11T12:01:12.564Z,5.75
2019-05-11T12:06:38.478Z,3.42
2019-05-11T12:12:01.880Z,3.87
2019-05-11T12:17:28.575Z,3.70
2019-05-11T12:22:53.322Z,3.35
2019-05-11T12:28:18.415Z,3.60
2019-05-11T12:33:43.383Z,4.12
2019-05-11T12:39:08.760Z,5.10
2019-05-11T12:44:32.801Z,4.03
2019-05-11T12:49:58.603Z,3.98
2019-05-11T12:55:23.753Z,3.95
2019-05-11T13:00:49.304Z,3.62
2019-05-11T13:06:13.721Z,3.85
2019-05-11T13:11:38.110Z,3.67
2019-05-11T13:17:02.070Z,3.30
2019-05-11T13:22:28.847Z,3.37
2019-05-11T13:27:53.233Z,4.50
2019-05-11T13:33:19.085Z,4.37
2019-05-11T13:38:43.560Z,5.20
2019-05-11T13:44:08.003Z,4.70
2019-05-11T13:49:33.392Z,4.67
2019-05-11T13:54:58.539Z,4.77
2019-05-11T14:00:23.321Z,4.80
2019-05-11T14:05:48.307Z,6.57
2019-05-11T14:11:13.020Z,4.90
2019-05-11T14:16:38.038Z,5.20
2019-05-11T14:22:02.655Z,5.37
2019-05-11T14:27:28.158Z,6.60
2019-05-11T14:32:52.788Z,6.17
2019-05-11T14:38:18.543Z,5.80
2019-05-11T14:43:42.260Z,7.53
2019-05-11T14:49:07.914Z,6.20
2019-05-11T14:54:32.439Z,8.30
2019-05-11T14:59:58.594Z,6.50
2019-05-11T15:05:23.522Z,6.37
2019-05-11T15:10:48.824Z,10.07
2019-05-11T15:16:13.988Z,6.20
2019-05-11T15:21:39.172Z,11.37
2019-05-11T15:27:03.736Z,6.37
2019-05-11T15:32:28.646Z,6.37
2019-05-11T15:37:53.441Z,5.83
2019-05-11T15:43:18.140Z,5.87
2019-05-11T15:48:55.568Z,6.20
2019-05-11T15:54:08.042Z,6.83
2019-05-11T15:59:32.562Z,10.57
2019-05-11T16:04:58.233Z,6.70
2019-05-11T16:10:22.160Z,7.90
2019-05-11T16:15:49.236Z,8.90
2019-05-11T16:21:13.924Z,8.10
2019-05-11T16:26:38.715Z,6.30
2019-05-11T16:32:03.497Z,6.20
2019-05-11T16:37:28.927Z,6.47
2019-05-11T16:42:56.171Z,6.23
2019-05-11T16:48:19.147Z,6.97
2019-05-11T16:53:43.858Z,7.23
2019-05-11T16:59:08.250Z,5.77
2019-05-11T17:04:33.016Z,6.43
2019-05-11T17:09:57.915Z,5.90
2019-05-11T17:15:22.404Z,6.53
2019-05-11T17:20:47.140Z,6.00
2019-05-11T17:26:11.591Z,7.10
2019-05-11T17:31:37.984Z,7.43
2019-05-11T17:37:02.835Z,7.50
2019-05-11T17:42:28.526Z,10.00
2019-05-11T17:47:53.699Z,9.00
2019-05-11T17:53:18.454Z,8.33
2019-05-11T17:58:42.980Z,10.53
2019-05-11T18:04:08.161Z,9.67
2019-05-11T18:09:33.359Z,9.07
2019-05-11T18:15:01.400Z,11.43
2019-05-11T18:20:25.416Z,9.87
2019-05-11T18:25:49.784Z,13.63
2019-05-11T18:31:13.998Z,12.60
2019-05-11T18:36:38.251Z,14.23
2019-05-11T18:42:03.130Z,14.70
2019-05-11T18:47:26.982Z,12.70
2019-05-11T18:52:51.129Z,8.57
2019-05-11T18:58:14.744Z,8.97
2019-05-11T19:03:38.617Z,9.23
2019-05-11T19:09:04.403Z,8.37
2019-05-11T19:14:29.365Z,7.80
2019-05-11T19:19:54.074Z,7.50
2019-05-11T19:25:18.841Z,8.43
2019-05-11T19:30:43.637Z,6.63
2019-05-11T19:36:08.193Z,6.80
2019-05-11T19:41:32.822Z,8.53
2019-05-11T19:46:58.167Z,6.27
2019-05-11T19:52:23.741Z,4.97
2019-05-11T19:57:48.540Z,7.27
2019-05-11T20:03:12.288Z,4.63
2019-05-11T20:08:36.400Z,4.90
2019-05-11T20:14:00.832Z,5.83
2019-05-11T20:19:25.332Z,5.27
2019-05-11T20:24:49.015Z,4.30
2019-05-11T20:30:13.052Z,4.17
2019-05-11T20:35:38.416Z,4.87
2019-05-11T20:41:02.921Z,4.10
2019-05-11T20:46:27.727Z,5.57
2019-05-11T20:51:52.135Z,3.80
2019-05-11T20:57:17.970Z,4.33
2019-05-11T21:02:42.523Z,4.27
2019-05-11T21:08:08.298Z,3.93
2019-05-11T21:13:31.963Z,3.83
2019-05-11T21:18:57.995Z,3.33
2019-05-11T21:24:22.959Z,3.40
2019-05-11T21:29:49.107Z,4.17
2019-05-11T21:35:13.112Z,3.30
2019-05-11T21:40:38.281Z,4.33
2019-05-11T21:46:02.931Z,3.37
2019-05-11T21:51:28.604Z,3.40
2019-05-11T21:56:53.279Z,2.97
2019-05-11T22:02:18.453Z,3.00
2019-05-11T22:07:43.219Z,3.00
2019-05-11T22:13:07.974Z,2.33
2019-05-11T22:18:32.637Z,2.40
2019-05-11T22:23:58.485Z,2.33
2019-05-11T22:29:21.850Z,2.50
2019-05-11T22:34:47.953Z,2.90
2019-05-11T22:40:13.150Z,2.97
2019-05-11T22:45:38.264Z,2.43
2019-05-11T22:51:03.432Z,2.37
2019-05-11T22:56:28.543Z,2.80
2019-05-11T23:01:53.246Z,2.70
2019-05-11T23:07:18.574Z,2.40
2019-05-11T23:12:42.731Z,2.50
2019-05-11T23:18:08.595Z,3.13
2019-05-11T23:23:32.770Z,2.57
2019-05-11T23:28:58.094Z,2.70
2019-05-11T23:34:23.682Z,2.50
2019-05-11T23:39:48.017Z,3.30
2019-05-11T23:45:13.071Z,2.67
2019-05-11T23:50:38.649Z,2.77
2019-05-11T23:56:03.433Z,3.10
